South Ryegate, VT (05069)

9:47 PM EDT on July 28, 2016 (GMT -0400)
West Topsham H | | Change Station

Elev 1640 ft 44.16 °N, 72.31 °W | Updated 6 minutes ago

Clear
Clear
63.2 °F
Feels Like 63.2 °F
N
0.0
Wind Variable Wind from SE
Gusts 0.0 mph

Today
High -- | Low -- °F
--% Chance of Precip.
Yesterday
High -- | Low -- °F
Precip. -- in
Pressure 29.96 in
Visibility 10.0 miles
Clouds Clear
Dew Point 60 °F
Humidity 90%
Rainfall in
Snow Depth Not available.
5:32 AM 8:17 PM
Waning Crescent, 27% visible
METAR KMPV 290051Z AUTO 00000KT 10SM CLR 19/18 A2997 RMK AO2 SLP144 T01890178
Pressure 29.96 in
Visibility 10.0 miles
Clouds Clear
Dew Point 60 °F
Humidity 90%
Rainfall in
Snow Depth Not available.
5:32 AM 8:17 PM
Waning Crescent, 27% visible
METAR KMPV 290051Z AUTO 00000KT 10SM CLR 19/18 A2997 RMK AO2 SLP144 T01890178

10-Day Weather Forecast

Almanac

Astronomy

Jul. 28, 2016 Rise Set
Actual Time
Civil Twilight
Nautical Twilight
Astronomical Twilight
Moon
Length of Visible Light
Length of Day
Tomorrow will be .
, % of the Moon is Illuminated

Today's Extremes

State Highs State Lows

Community

WunderPhotos

Upload Photos

1,928,255 photos uploaded!

WunderBlog® & News

Nearby

Air Quality

  Air Quality AQ Index Pollutant
Not available.

Snow Depth

Station Depth Elevation

Earthquake Activity

City Distance Mag. Time & Date
Minimum magnitude displayed is 2.5.

Coastal Water Temperatures

Place Temperature

Stations

Nearby Weather Stations

Station Location Temp. Windchill Dew Point Humidity Wind Precip. Elev Updated Type
                   

Watches & Warnings

There are currently no watches in effect.